Time,TemperatureF,DewpointF,PressureIn,WindDirection,WindDirectionDegrees,WindSpeedMPH,WindSpeedGustMPH,Humidity,HourlyPrecipIn,Conditions,Clouds,dailyrainin,SoftwareType,DateUTC
2015-05-24 00:01:00,62.0,60.8,29.95,SSW,193,7.5,10.5,96,0.11,,RA,0.00,VWS V14.01,2015-05-24 05:01:00,
2015-05-24 00:07:00,62.0,60.8,29.94,South,174,6.0,13.5,96,0.12,,RA,0.01,VWS V14.01,2015-05-24 05:07:00,
2015-05-24 00:12:00,61.9,60.8,29.94,South,172,6.0,13.5,96,0.13,,RA,0.02,VWS V14.01,2015-05-24 05:12:00,
2015-05-24 00:17:00,61.9,60.8,29.94,South,181,1.5,13.5,96,0.13,,RA,0.02,VWS V14.01,2015-05-24 05:17:00,
2015-05-24 00:22:00,61.8,60.7,29.94,SE,146,1.5,13.5,96,0.13,,RA,0.02,VWS V14.01,2015-05-24 05:22:00,
2015-05-24 00:27:00,61.8,60.7,29.93,SSE,165,4.5,13.5,96,0.13,,RA,0.02,VWS V14.01,2015-05-24 05:27:00,
2015-05-24 00:32:00,61.8,60.7,29.94,SSE,167,7.5,9.0,96,0.07,,RA,0.03,VWS V14.01,2015-05-24 05:32:00,
2015-05-24 00:37:00,61.8,60.7,29.94,South,180,3.0,9.0,96,0.07,,RA,0.03,VWS V14.01,2015-05-24 05:37:00,
2015-05-24 00:42:00,61.8,60.7,29.94,SSW,202,4.5,9.0,96,0.07,,RA,0.03,VWS V14.01,2015-05-24 05:42:00,
2015-05-24 00:47:00,61.7,60.5,29.94,SSW,204,0.0,9.0,96,0.09,,RA,0.05,VWS V14.01,2015-05-24 05:47:00,
2015-05-24 00:57:00,61.6,60.5,29.93,South,188,0.0,9.0,96,0.10,,-RA,0.06,VWS V14.01,2015-05-24 05:57:00,
2015-05-24 01:02:00,61.5,60.3,29.93,SW,226,1.5,4.5,96,0.07,,-RA,0.07,VWS V14.01,2015-05-24 06:02:00,
2015-05-24 01:07:00,61.4,60.2,29.93,SSW,203,1.5,7.5,96,0.07,,-RA,0.07,VWS V14.01,2015-05-24 06:07:00,
2015-05-24 01:12:00,61.3,60.2,29.92,South,184,3.0,7.5,96,0.08,,-RA,0.08,VWS V14.01,2015-05-24 06:12:00,
2015-05-24 01:17:00,61.3,60.2,29.93,SSW,195,6.0,10.5,96,0.08,,RA,0.08,VWS V14.01,2015-05-24 06:17:00,
2015-05-24 01:22:00,61.2,60.0,29.92,South,170,4.5,10.5,96,0.08,,-RA,0.08,VWS V14.01,2015-05-24 06:22:00,
2015-05-24 01:27:00,61.0,59.9,29.92,SSE,163,1.5,12.0,96,0.08,,-RA,0.08,VWS V14.01,2015-05-24 06:27:00,
2015-05-24 01:32:00,60.9,59.8,29.92,SSW,210,1.5,7.5,96,0.06,,-RA,0.09,VWS V14.01,2015-05-24 06:32:00,
2015-05-24 01:37:00,60.8,59.7,29.92,SSE,158,3.0,7.5,96,0.06,,-RA,0.09,VWS V14.01,2015-05-24 06:37:00,
2015-05-24 01:42:00,60.7,59.6,29.91,SSW,209,0.0,7.5,96,0.07,,-RA,0.10,VWS V14.01,2015-05-24 06:42:00,
2015-05-24 01:47:00,60.7,59.6,29.92,SSE,153,0.0,7.5,96,0.07,,-RA,0.10,VWS V14.01,2015-05-24 06:47:00,
2015-05-24 01:52:00,60.6,59.5,29.91,South,188,0.0,7.5,96,0.07,,-RA,0.10,VWS V14.01,2015-05-24 06:52:00,
2015-05-24 01:57:00,60.5,59.4,29.91,SSW,195,1.5,7.5,96,0.07,,-RA,0.10,VWS V14.01,2015-05-24 06:57:00,
2015-05-24 02:02:00,60.5,59.4,29.91,SSW,212,0.0,3.0,96,0.03,,-RA,0.10,VWS V14.01,2015-05-24 07:02:00,
2015-05-24 02:07:00,60.4,59.3,29.90,SSW,211,3.0,6.0,96,0.03,,-RA,0.10,VWS V14.01,2015-05-24 07:07:00,
2015-05-24 02:12:00,60.4,59.3,29.90,SSW,196,0.0,6.0,96,0.03,,-RA,0.10,VWS V14.01,2015-05-24 07:12:00,
2015-05-24 02:16:00,60.3,59.2,29.90,South,180,1.5,6.0,96,0.03,,-RA,0.10,VWS V14.01,2015-05-24 07:16:00,
2015-05-24 02:21:00,60.3,59.2,29.90,SSW,212,6.0,6.0,96,0.03,,-RA,0.10,VWS V14.01,2015-05-24 07:21:00,
2015-05-24 02:26:00,60.3,59.2,29.90,South,177,6.0,9.0,96,0.03,,-RA,0.10,VWS V14.01,2015-05-24 07:26:00,
2015-05-24 02:31:00,60.3,59.2,29.90,SSE,162,1.5,6.0,96,0.02,,-RA,0.10,VWS V14.01,2015-05-24 07:31:00,
2015-05-24 02:36:00,60.3,59.2,29.89,SSE,155,6.0,6.0,96,0.02,,-RA,0.10,VWS V14.01,2015-05-24 07:36:00,
2015-05-24 02:41:00,60.3,59.2,29.89,SSW,212,3.0,6.0,96,0.02,,-RA,0.10,VWS V14.01,2015-05-24 07:41:00,
2015-05-24 02:46:00,60.3,59.2,29.88,South,186,6.0,9.0,96,0.02,,-RA,0.10,VWS V14.01,2015-05-24 07:46:00,
2015-05-24 02:51:00,60.2,59.1,29.87,South,184,4.5,9.0,96,0.02,,-RA,0.10,VWS V14.01,2015-05-24 07:51:00,
2015-05-24 02:56:00,60.1,59.0,29.87,SSW,200,4.5,9.0,96,0.02,,-RA,0.10,VWS V14.01,2015-05-24 07:56:00,
2015-05-24 03:01:00,60.1,59.0,29.87,SE,128,6.0,9.0,96,0.00,,-RA,0.10,VWS V14.01,2015-05-24 08:01:00,
2015-05-24 03:06:00,60.1,59.0,29.86,SSE,152,6.0,10.5,96,0.00,,-RA,0.10,VWS V14.01,2015-05-24 08:06:00,
2015-05-24 03:11:00,60.0,58.9,29.85,SE,140,7.5,10.5,96,0.01,,-RA,0.11,VWS V14.01,2015-05-24 08:11:00,
2015-05-24 03:16:00,59.9,58.8,29.84,ESE,110,7.5,10.5,96,0.01,,-RA,0.11,VWS V14.01,2015-05-24 08:16:00,
2015-05-24 03:21:00,59.9,58.8,29.84,ESE,123,6.0,10.5,96,0.01,,-RA,0.11,VWS V14.01,2015-05-24 08:21:00,
2015-05-24 03:26:00,59.9,58.8,29.85,SSE,162,4.5,10.5,96,0.01,,-RA,0.11,VWS V14.01,2015-05-24 08:26:00,
2015-05-24 03:31:00,59.9,58.8,29.86,SE,144,4.5,9.0,96,0.01,,BKN110,0.11,VWS V14.01,2015-05-24 08:31:00,
2015-05-24 03:36:00,59.9,58.8,29.85,SSE,166,4.5,12.0,96,0.01,,BKN110,0.11,VWS V14.01,2015-05-24 08:36:00,
2015-05-24 03:41:00,59.9,58.8,29.84,SE,124,4.5,13.5,96,0.01,,BKN110,0.11,VWS V14.01,2015-05-24 08:41:00,
2015-05-24 03:46:00,59.9,58.8,29.83,SE,146,6.0,13.5,96,0.02,,BKN110,0.12,VWS V14.01,2015-05-24 08:46:00,
2015-05-24 03:51:00,59.8,58.7,29.80,ESE,114,13.5,18.0,96,0.02,,BKN110,0.12,VWS V14.01,2015-05-24 08:51:00,
2015-05-24 03:56:00,59.8,58.7,29.80,SE,138,4.5,18.0,96,0.02,,BKN110,0.12,VWS V14.01,2015-05-24 08:56:00,
2015-05-24 04:01:00,59.8,58.7,29.81,SE,136,6.0,10.5,96,0.02,,BKN110,0.12,VWS V14.01,2015-05-24 09:01:00,
2015-05-24 04:06:00,59.8,58.7,29.81,SE,145,6.0,13.5,96,0.02,,BKN110,0.12,VWS V14.01,2015-05-24 09:06:00,
2015-05-24 04:11:00,59.8,58.7,29.81,South,172,9.0,18.0,96,0.02,,BKN110,0.12,VWS V14.01,2015-05-24 09:11:00,
2015-05-24 04:16:00,59.8,58.7,29.81,SE,136,15.0,18.0,96,0.02,,BKN110,0.12,VWS V14.01,2015-05-24 09:16:00,
2015-05-24 04:21:00,59.7,58.6,29.81,SE,146,9.0,18.0,96,0.02,,BKN110,0.12,VWS V14.01,2015-05-24 09:21:00,
2015-05-24 04:26:00,59.7,58.6,29.81,SE,127,15.0,18.0,96,0.02,,BKN110,0.12,VWS V14.01,2015-05-24 09:26:00,
2015-05-24 04:31:00,59.7,58.6,29.81,SE,144,12.0,13.5,96,0.01,,-RA,0.12,VWS V14.01,2015-05-24 09:31:00,
2015-05-24 04:36:00,59.7,58.6,29.81,South,191,10.5,16.5,96,0.01,,-RA,0.12,VWS V14.01,2015-05-24 09:36:00,
2015-05-24 04:41:00,59.6,58.5,29.81,SE,125,12.0,16.5,96,0.01,,-RA,0.12,VWS V14.01,2015-05-24 09:41:00,
2015-05-24 04:46:00,59.6,58.5,29.82,SSE,160,6.0,16.5,96,0.01,,-RA,0.12,VWS V14.01,2015-05-24 09:46:00,
2015-05-24 04:51:00,59.6,58.5,29.82,SE,137,13.5,16.5,96,0.01,,-RA,0.12,VWS V14.01,2015-05-24 09:51:00,
2015-05-24 04:56:00,59.6,58.5,29.82,South,171,6.0,18.0,96,0.01,,-RA,0.12,VWS V14.01,2015-05-24 09:56:00,
2015-05-24 05:01:00,59.6,58.5,29.82,SSW,197,7.5,16.5,96,0.00,,-RA,0.12,VWS V14.01,2015-05-24 10:01:00,
2015-05-24 05:06:00,59.6,58.5,29.82,SSE,148,13.5,18.0,96,0.00,,-RA,0.12,VWS V14.01,2015-05-24 10:06:00,
2015-05-24 05:11:00,59.5,58.4,29.82,SE,127,13.5,18.0,96,0.00,,-RA,0.12,VWS V14.01,2015-05-24 10:11:00,
2015-05-24 05:16:00,59.5,58.4,29.82,South,186,9.0,18.0,96,0.00,,-RA,0.12,VWS V14.01,2015-05-24 10:16:00,
2015-05-24 05:21:00,59.5,58.4,29.82,SSW,196,10.5,18.0,96,0.00,,-RA,0.12,VWS V14.01,2015-05-24 10:21:00,
2015-05-24 05:26:00,59.5,58.4,29.82,South,184,9.0,18.0,96,0.00,,-RA,0.12,VWS V14.01,2015-05-24 10:26:00,
2015-05-24 05:31:00,59.5,58.4,29.82,SSW,195,9.0,13.5,96,0.00,,CLR,0.12,VWS V14.01,2015-05-24 10:31:00,
2015-05-24 05:36:00,59.5,58.4,29.82,SSW,200,4.5,13.5,96,0.00,,CLR,0.12,VWS V14.01,2015-05-24 10:36:00,
2015-05-24 05:41:00,59.5,58.4,29.82,SW,221,7.5,13.5,96,0.00,,CLR,0.12,VWS V14.01,2015-05-24 10:41:00,
2015-05-24 05:46:00,59.5,58.4,29.82,SSE,163,6.0,18.0,96,0.00,,CLR,0.12,VWS V14.01,2015-05-24 10:46:00,
2015-05-24 05:51:00,59.5,58.4,29.82,South,184,4.5,18.0,96,0.00,,CLR,0.12,VWS V14.01,2015-05-24 10:51:00,
2015-05-24 05:56:00,59.5,58.4,29.81,South,184,10.5,18.0,96,0.00,,CLR,0.12,VWS V14.01,2015-05-24 10:56:00,
2015-05-24 06:01:00,59.5,58.4,29.81,South,180,12.0,12.0,96,0.00,,CLR,0.12,VWS V14.01,2015-05-24 11:01:00,
2015-05-24 06:06:00,59.6,58.5,29.81,SW,219,4.5,15.0,96,0.00,,CLR,0.12,VWS V14.01,2015-05-24 11:06:00,
2015-05-24 06:16:00,59.6,58.5,29.81,SSE,158,6.0,15.0,96,0.00,,CLR,0.12,VWS V14.01,2015-05-24 11:16:00,
2015-05-24 06:21:00,59.6,58.5,29.81,South,172,6.0,15.0,96,0.00,,CLR,0.12,VWS V14.01,2015-05-24 11:21:00,
2015-05-24 06:26:00,59.6,58.5,29.81,South,191,4.5,15.0,96,0.00,,CLR,0.12,VWS V14.01,2015-05-24 11:26:00,
2015-05-24 06:31:00,59.6,58.5,29.81,SSW,197,6.0,10.5,96,0.00,,BKN110,0.12,VWS V14.01,2015-05-24 11:31:00,
2015-05-24 06:36:00,59.6,58.5,29.81,SSE,161,3.0,13.5,96,0.00,,BKN110,0.12,VWS V14.01,2015-05-24 11:36:00,
2015-05-24 06:41:00,59.6,58.5,29.81,SSW,201,4.5,13.5,96,0.00,,BKN110,0.12,VWS V14.01,2015-05-24 11:41:00,
2015-05-24 06:46:00,59.6,58.5,29.81,SSE,159,0.0,13.5,96,0.00,,BKN110,0.12,VWS V14.01,2015-05-24 11:46:00,
2015-05-24 06:51:00,59.6,58.5,29.82,ESE,120,0.0,13.5,96,0.00,,BKN110,0.12,VWS V14.01,2015-05-24 11:51:00,
2015-05-24 06:57:00,59.6,58.5,29.82,NNW,331,4.5,13.5,96,0.00,,BKN110,0.12,VWS V14.01,2015-05-24 11:57:00,
2015-05-24 07:02:00,59.6,58.5,29.83,NNE,19,6.0,10.5,96,0.00,,BKN110,0.12,VWS V14.01,2015-05-24 12:02:00,
2015-05-24 07:07:00,59.7,58.6,29.82,North,8,1.5,10.5,96,0.00,,BKN110,0.12,VWS V14.01,2015-05-24 12:07:00,
2015-05-24 07:12:00,59.6,58.5,29.82,NNW,344,3.0,10.5,96,0.00,,BKN110,0.12,VWS V14.01,2015-05-24 12:12:00,
2015-05-24 07:17:00,59.6,58.5,29.82,ENE,68,0.0,10.5,96,0.00,,BKN110,0.12,VWS V14.01,2015-05-24 12:17:00,
2015-05-24 07:22:00,59.6,58.5,29.83,ENE,68,0.0,10.5,96,0.00,,BKN110,0.12,VWS V14.01,2015-05-24 12:22:00,
2015-05-24 07:27:00,59.6,58.5,29.83,SSE,155,3.0,10.5,96,0.00,,BKN110,0.12,VWS V14.01,2015-05-24 12:27:00,
2015-05-24 07:32:00,59.5,58.4,29.83,SSE,159,3.0,4.5,96,0.00,,OVC120,0.12,VWS V14.01,2015-05-24 12:32:00,
2015-05-24 07:37:00,59.5,58.4,29.83,South,177,4.5,4.5,96,0.00,,OVC120,0.12,VWS V14.01,2015-05-24 12:37:00,
2015-05-24 07:42:00,59.6,58.5,29.83,SSE,156,1.5,4.5,96,0.00,,OVC120,0.12,VWS V14.01,2015-05-24 12:42:00,
2015-05-24 07:47:00,59.7,58.6,29.83,SE,132,3.0,4.5,96,0.00,,OVC120,0.12,VWS V14.01,2015-05-24 12:47:00,
2015-05-24 07:52:00,59.8,58.7,29.82,ESE,123,4.5,4.5,96,0.00,,OVC120,0.12,VWS V14.01,2015-05-24 12:52:00,
2015-05-24 07:57:00,59.9,58.8,29.83,SE,129,0.0,4.5,96,0.00,,OVC120,0.12,VWS V14.01,2015-05-24 12:57:00,
2015-05-24 08:02:00,60.1,59.0,29.83,SE,129,0.0,1.5,96,0.00,,OVC120,0.12,VWS V14.01,2015-05-24 13:02:00,
2015-05-24 08:07:00,60.1,59.0,29.83,SE,129,0.0,1.5,96,0.00,,OVC120,0.12,VWS V14.01,2015-05-24 13:07:00,
2015-05-24 08:12:00,60.3,59.2,29.84,SE,129,0.0,1.5,96,0.00,,OVC120,0.12,VWS V14.01,2015-05-24 13:12:00,
2015-05-24 08:17:00,60.3,59.2,29.85,SE,129,1.5,1.5,96,0.00,,OVC120,0.12,VWS V14.01,2015-05-24 13:17:00,
2015-05-24 08:22:00,60.4,59.3,29.85,SE,129,0.0,3.0,96,0.00,,OVC120,0.12,VWS V14.01,2015-05-24 13:22:00,
2015-05-24 08:27:00,60.7,59.6,29.86,NNW,342,4.5,6.0,96,0.00,,OVC120,0.12,VWS V14.01,2015-05-24 13:27:00,
2015-05-24 08:32:00,60.6,59.5,29.86,North,8,1.5,4.5,96,0.00,,FEW110,0.12,VWS V14.01,2015-05-24 13:32:00,
2015-05-24 08:37:00,60.7,59.6,29.86,ENE,61,0.0,4.5,96,0.00,,FEW110,0.12,VWS V14.01,2015-05-24 13:37:00,
2015-05-24 08:42:00,60.8,59.7,29.86,ENE,61,0.0,4.5,96,0.00,,FEW110,0.12,VWS V14.01,2015-05-24 13:42:00,
2015-05-24 08:47:00,60.9,59.8,29.86,ENE,62,0.0,4.5,96,0.00,,FEW110,0.12,VWS V14.01,2015-05-24 13:47:00,
2015-05-24 08:52:00,61.0,59.9,29.87,ENE,77,0.0,4.5,96,0.00,,FEW110,0.12,VWS V14.01,2015-05-24 13:52:00,
2015-05-24 08:57:00,61.1,60.0,29.87,ESE,120,0.0,4.5,96,0.00,,FEW110,0.12,VWS V14.01,2015-05-24 13:57:00,
2015-05-24 09:02:00,61.1,60.0,29.87,ESE,120,0.0,3.0,96,0.00,,FEW110,0.12,VWS V14.01,2015-05-24 14:02:00,
2015-05-24 09:07:00,61.1,60.0,29.87,ESE,110,1.5,4.5,96,0.00,,FEW110,0.12,VWS V14.01,2015-05-24 14:07:00,
2015-05-24 09:12:00,61.2,60.0,29.87,ENE,65,1.5,4.5,96,0.00,,FEW110,0.12,VWS V14.01,2015-05-24 14:12:00,
2015-05-24 09:17:00,61.3,60.2,29.87,East,85,3.0,4.5,96,0.00,,FEW110,0.12,VWS V14.01,2015-05-24 14:17:00,
2015-05-24 09:22:00,61.4,60.2,29.88,East,96,1.5,4.5,96,0.00,,FEW110,0.12,VWS V14.01,2015-05-24 14:22:00,
2015-05-24 09:27:00,61.4,60.2,29.88,ESE,111,4.5,4.5,96,0.00,,FEW110,0.12,VWS V14.01,2015-05-24 14:27:00,
2015-05-24 09:32:00,61.6,60.5,29.87,ESE,117,0.0,4.5,96,0.00,,OVC100,0.12,VWS V14.01,2015-05-24 14:32:00,
2015-05-24 09:37:00,61.9,60.8,29.88,SE,129,1.5,4.5,96,0.00,,OVC100,0.12,VWS V14.01,2015-05-24 14:37:00,
2015-05-24 09:42:00,62.0,60.8,29.87,East,92,3.0,7.5,96,0.00,,OVC100,0.12,VWS V14.01,2015-05-24 14:42:00,
2015-05-24 09:47:00,62.0,60.8,29.87,ESE,113,4.5,10.5,96,0.00,,OVC090,0.12,VWS V14.01,2015-05-24 14:47:00,
2015-05-24 09:52:00,61.9,60.8,29.87,South,173,4.5,12.0,96,0.00,,OVC090,0.12,VWS V14.01,2015-05-24 14:52:00,
2015-05-24 09:57:00,62.0,60.8,29.87,SE,127,6.0,12.0,96,0.00,,OVC090,0.12,VWS V14.01,2015-05-24 14:57:00,
2015-05-24 10:02:00,61.9,60.8,29.87,SE,124,4.5,12.0,96,0.00,,OVC090,0.12,VWS V14.01,2015-05-24 15:02:00,
2015-05-24 10:07:00,61.8,60.7,29.87,ESE,117,7.5,12.0,96,0.00,,OVC090,0.12,VWS V14.01,2015-05-24 15:07:00,
2015-05-24 10:12:00,61.9,60.8,29.87,SSE,151,1.5,12.0,96,0.00,,OVC090,0.12,VWS V14.01,2015-05-24 15:12:00,
2015-05-24 10:18:00,62.0,60.8,29.87,SSE,157,1.5,12.0,96,0.01,,OVC090,0.13,VWS V14.01,2015-05-24 15:18:00,
2015-05-24 10:23:00,62.1,61.0,29.87,SSE,160,3.0,12.0,96,0.01,,OVC090,0.13,VWS V14.01,2015-05-24 15:23:00,
2015-05-24 10:28:00,62.0,60.8,29.88,SSW,193,1.5,12.0,96,0.03,,OVC090,0.15,VWS V14.01,2015-05-24 15:28:00,